Time;durP1;ratioP1;P1;durP2;ratioP2;P2;SDS_P1;SDS_P2;PMS_P1;PMS_P2;Temp;Humidity;BMP_temperature;BMP_pressure;BME280_temperature;BME280_humidity;BME280_pressure;Samples;Min_cycle;Max_cycle;Signal;HPM_P1;HPM_P2
2021/06/16 00:01:57;;;;;;;5.88;3.65;;;;;;;17.29;81.55;99287.44;2040247;77;25654;-81
2021/06/16 00:05:00;;;;;;;4.95;3.44;;;;;;;17.31;81.46;99285.63;2039116;79;20286;-79
2021/06/16 00:08:03;;;;;;;5.49;3.54;;;;;;;17.24;81.85;99276.25;2039919;79;20166;-80
2021/06/16 00:11:07;;;;;;;3.79;3.34;;;;;;;17.22;81.82;99288.53;2041498;79;20242;-80
2021/06/16 00:14:10;;;;;;;5.01;3.53;;;;;;;17.25;81.78;99279.72;2039344;79;20199;-79
2021/06/16 00:17:13;;;;;;;5.06;3.39;;;;;;;17.24;81.47;99268.38;2039264;77;21271;-80
2021/06/16 00:20:16;;;;;;;5.32;3.26;;;;;;;17.20;81.55;99277.22;2038890;79;20189;-81
2021/06/16 00:23:19;;;;;;;4.32;2.85;;;;;;;17.14;81.97;99270.44;2041243;79;20161;-80
2021/06/16 00:26:21;;;;;;;9.64;3.17;;;;;;;17.11;81.90;99269.69;2041406;79;20165;-79
2021/06/16 00:29:24;;;;;;;5.03;2.90;;;;;;;17.09;82.08;99267.09;2039201;79;20177;-81
2021/06/16 00:32:26;;;;;;;5.75;2.90;;;;;;;17.08;82.10;99267.16;2040326;77;21724;-80
2021/06/16 00:35:30;;;;;;;2.89;2.69;;;;;;;16.98;82.40;99270.97;2042847;79;20216;-81
2021/06/16 00:38:33;;;;;;;3.86;2.91;;;;;;;16.89;83.04;99266.91;2042627;79;20190;-82
2021/06/16 00:41:36;;;;;;;4.05;2.88;;;;;;;16.84;83.26;99268.78;2040660;79;20169;-81
2021/06/16 00:44:39;;;;;;;5.34;2.91;;;;;;;16.77;83.54;99267.28;2041974;79;20189;-81
2021/06/16 00:47:41;;;;;;;3.69;2.55;;;;;;;16.74;83.62;99272.63;2040582;77;20624;-80
2021/06/16 00:50:44;;;;;;;3.22;2.38;;;;;;;16.67;83.71;99265.84;2041729;79;20202;-81
2021/06/16 00:53:47;;;;;;;4.63;2.56;;;;;;;16.60;84.13;99265.16;2041005;79;20207;-80
2021/06/16 00:56:49;;;;;;;4.30;2.64;;;;;;;16.56;84.49;99267.00;2040200;79;20191;-81
2021/06/16 01:00:19;;;;;;;2.65;2.45;;;;;;;16.51;84.61;99266.28;2042402;79;20173;-80
2021/06/16 01:03:28;;;;;;;2.90;2.51;;;;;;;16.52;84.58;99268.03;2037885;79;20198;-81
2021/06/16 01:06:52;;;;;;;3.16;2.28;;;;;;;16.52;84.66;99268.03;2034929;80;20242;-79
2021/06/16 01:10:04;;;;;;;2.55;2.25;;;;;;;16.51;84.58;99266.28;2033649;80;20170;-81
2021/06/16 01:13:23;;;;;;;2.59;2.20;;;;;;;16.55;84.37;99267.06;2036172;80;20335;-80
2021/06/16 01:16:37;;;;;;;3.99;2.90;;;;;;;16.53;84.27;99266.25;2035892;80;20175;-81
2021/06/16 01:19:59;;;;;;;5.10;2.55;;;;;;;16.48;84.10;99269.00;2036508;79;20216;-80
2021/06/16 01:23:07;;;;;;;4.81;2.75;;;;;;;16.35;84.50;99265.03;2034906;79;20166;-80
2021/06/16 01:26:18;;;;;;;2.54;2.34;;;;;;;16.28;84.47;99263.50;2035687;79;20188;-80
2021/06/16 01:29:27;;;;;;;3.71;2.46;;;;;;;16.28;84.83;99268.72;2033590;79;20817;-80
2021/06/16 01:32:30;;;;;;;5.17;2.59;;;;;;;16.20;85.16;99262.88;2039079;77;21694;-81
2021/06/16 01:35:36;;;;;;;3.16;2.47;;;;;;;16.16;85.12;99264.72;2044991;79;20215;-80
2021/06/16 01:38:41;;;;;;;4.28;2.80;;;;;;;16.17;85.17;99262.97;2043356;79;20204;-81
2021/06/16 01:41:45;;;;;;;2.80;2.60;;;;;;;16.17;85.13;99263.81;2043154;79;20201;-81
2021/06/16 01:44:52;;;;;;;4.84;2.78;;;;;;;16.16;85.01;99262.09;2042313;79;20201;-81
2021/06/16 01:47:58;;;;;;;3.05;2.72;;;;;;;16.09;85.07;99259.69;2042475;78;20861;-81
2021/06/16 01:51:01;;;;;;;3.63;2.85;;;;;;;16.01;85.34;99254.69;2044833;79;20234;-81
2021/06/16 01:54:04;;;;;;;5.30;3.30;;;;;;;15.97;85.46;99253.91;2046126;79;20196;-81
2021/06/16 01:57:11;;;;;;;4.68;3.64;;;;;;;15.95;85.46;99257.47;2043361;79;20169;-83
2021/06/16 02:00:16;;;;;;;5.55;3.35;;;;;;;15.86;85.71;99253.34;2045813;79;20229;-82
2021/06/16 02:03:20;;;;;;;4.22;3.16;;;;;;;15.83;86.05;99250.84;2044721;77;27791;-81
2021/06/16 02:06:27;;;;;;;4.07;3.25;;;;;;;15.79;86.22;99250.94;2046067;79;20173;-82
2021/06/16 02:09:32;;;;;;;3.53;2.95;;;;;;;15.78;86.38;99251.84;2046245;79;20162;-81
2021/06/16 02:12:38;;;;;;;3.36;3.05;;;;;;;15.76;86.36;99249.25;2043525;79;20165;-80
2021/06/16 02:15:48;;;;;;;4.36;3.30;;;;;;;15.77;86.21;99250.97;2043220;79;20166;-82
2021/06/16 02:19:02;;;;;;;4.03;3.17;;;;;;;15.74;86.26;99244.97;2042898;79;20199;-81
2021/06/16 02:22:06;;;;;;;6.21;3.03;;;;;;;15.70;86.38;99241.59;2047526;79;20169;-82
2021/06/16 02:25:10;;;;;;;2.92;2.63;;;;;;;15.66;86.36;99240.81;2045885;79;20189;-80
2021/06/16 02:28:13;;;;;;;3.60;2.65;;;;;;;15.68;86.04;99238.16;2045156;79;20273;-82
2021/06/16 02:31:16;;;;;;;3.74;2.95;;;;;;;15.66;85.98;99232.13;2046453;79;20185;-81
2021/06/16 02:34:19;;;;;;;2.95;2.74;;;;;;;15.66;85.77;99232.97;2045848;79;20209;-82
2021/06/16 02:37:22;;;;;;;4.16;2.94;;;;;;;15.62;85.67;99233.97;2044572;79;20169;-82
2021/06/16 02:40:25;;;;;;;3.08;2.88;;;;;;;15.57;85.66;99233.19;2045002;79;20226;-82
2021/06/16 02:43:28;;;;;;;4.95;2.63;;;;;;;15.51;85.81;99228.13;2044495;79;20165;-81
2021/06/16 02:46:37;;;;;;;4.14;3.00;;;;;;;15.48;86.13;99232.59;2043644;79;20251;-81
2021/06/16 02:49:43;;;;;;;4.21;3.04;;;;;;;15.36;86.25;99234.59;2044106;79;20357;-82
2021/06/16 02:52:47;;;;;;;3.80;2.75;;;;;;;15.29;86.80;99226.97;2043917;79;20196;-81
2021/06/16 02:55:53;;;;;;;5.99;2.88;;;;;;;15.30;86.80;99226.94;2044365;79;20194;-82
2021/06/16 02:58:56;;;;;;;4.11;2.86;;;;;;;15.31;86.84;99227.78;2043035;79;20241;-82
2021/06/16 03:02:00;;;;;;;3.42;2.71;;;;;;;15.30;86.84;99224.31;2043341;79;20182;-82
2021/06/16 03:05:05;;;;;;;3.47;2.88;;;;;;;15.32;86.75;99222.50;2044763;79;20206;-81
2021/06/16 03:08:09;;;;;;;3.59;3.30;;;;;;;15.26;86.63;99219.19;2044135;79;20178;-82
2021/06/16 03:11:12;;;;;;;3.80;2.66;;;;;;;15.25;86.70;99220.09;2044028;79;20142;-82
2021/06/16 03:14:15;;;;;;;4.43;2.92;;;;;;;15.15;86.92;99222.09;2043719;79;20198;-81
2021/06/16 03:17:19;;;;;;;3.79;3.46;;;;;;;15.09;87.01;99222.25;2042534;77;22793;-82
2021/06/16 03:20:24;;;;;;;3.45;3.15;;;;;;;15.10;87.20;99222.22;2042350;79;20166;-82
2021/06/16 03:23:28;;;;;;;3.53;3.28;;;;;;;15.06;87.44;99225.78;2041487;79;20195;-81
2021/06/16 03:26:31;;;;;;;3.95;2.81;;;;;;;14.98;87.39;99226.88;2042880;79;20169;-81
2021/06/16 03:29:34;;;;;;;4.65;3.20;;;;;;;15.02;87.32;99231.13;2043806;79;20208;-81
2021/06/16 03:32:38;;;;;;;4.94;3.46;;;;;;;14.98;87.12;99226.88;2040414;77;20586;-81
2021/06/16 03:35:40;;;;;;;5.56;3.74;;;;;;;14.99;87.11;99228.59;2041666;79;20333;-80
2021/06/16 03:38:44;;;;;;;5.32;3.45;;;;;;;14.99;87.13;99226.00;2042978;79;20207;-80
2021/06/16 03:41:47;;;;;;;4.94;3.42;;;;;;;14.97;87.00;99231.25;2041306;79;20227;-80
2021/06/16 03:44:52;;;;;;;5.81;3.78;;;;;;;14.94;87.14;99233.97;2039806;79;20265;-80
2021/06/16 03:47:59;;;;;;;3.86;3.36;;;;;;;14.91;87.24;99234.03;2040048;77;20197;-80
2021/06/16 03:51:03;;;;;;;7.16;3.55;;;;;;;14.94;87.45;99233.97;2040535;79;20182;-81
2021/06/16 03:54:11;;;;;;;6.13;3.53;;;;;;;14.92;87.46;99224.44;2041164;79;20178;-81
2021/06/16 03:57:18;;;;;;;5.75;3.04;;;;;;;14.92;87.69;99225.28;2037594;79;20173;-80
2021/06/16 04:00:22;;;;;;;3.56;3.20;;;;;;;14.95;87.36;99225.22;2041592;79;23085;-80
2021/06/16 04:03:25;;;;;;;4.65;3.74;;;;;;;14.95;87.38;99226.97;2039661;79;20205;-80
2021/06/16 04:06:28;;;;;;;4.04;3.59;;;;;;;14.92;87.34;99220.06;2038111;79;20181;-80
2021/06/16 04:09:31;;;;;;;4.04;3.59;;;;;;;14.88;87.45;99222.78;2041626;79;20177;-81
2021/06/16 04:12:34;;;;;;;3.65;3.17;;;;;;;14.90;87.77;99215.75;2042761;79;20166;-81
2021/06/16 04:15:37;;;;;;;5.85;3.85;;;;;;;14.92;87.66;99219.22;2041711;79;20195;-80
2021/06/16 04:18:42;;;;;;;4.64;3.59;;;;;;;14.92;87.78;99201.75;2043920;79;20189;-82
2021/06/16 04:21:44;;;;;;;4.07;3.72;;;;;;;14.98;87.86;99205.97;2044176;79;20181;-83
2021/06/16 04:24:47;;;;;;;5.16;4.19;;;;;;;15.02;87.80;99210.22;2043595;79;20250;-81
2021/06/16 04:27:51;;;;;;;6.44;4.57;;;;;;;15.09;87.69;99204.81;2040147;79;20154;-81
2021/06/16 04:30:53;;;;;;;6.66;4.46;;;;;;;15.16;87.61;99210.72;2042039;77;24502;-81
2021/06/16 04:33:59;;;;;;;5.90;5.11;;;;;;;15.16;87.61;99208.13;2042912;79;20211;-81
2021/06/16 04:37:02;;;;;;;5.81;4.78;;;;;;;15.23;87.72;99211.41;2042551;79;20237;-82
2021/06/16 04:40:07;;;;;;;6.79;4.75;;;;;;;15.30;87.85;99211.25;2041244;79;20250;-81
2021/06/16 04:43:10;;;;;;;6.16;3.97;;;;;;;15.43;87.54;99202.13;2041164;79;20211;-80
2021/06/16 04:46:18;;;;;;;6.31;3.99;;;;;;;15.51;87.20;99203.72;2043337;77;20174;-82
2021/06/16 04:49:22;;;;;;;7.55;4.15;;;;;;;15.57;87.20;99193.91;2043892;79;20170;-82
2021/06/16 04:52:25;;;;;;;7.16;3.85;;;;;;;15.68;87.21;99205.00;2044384;79;20193;-81
2021/06/16 04:55:27;;;;;;;5.25;3.70;;;;;;;15.86;86.83;99208.84;2044519;79;20233;-81
2021/06/16 04:58:30;;;;;;;5.78;3.14;;;;;;;16.02;86.59;99214.50;2044405;79;20230;-81
2021/06/16 05:01:37;;;;;;;5.84;3.20;;;;;;;16.21;86.20;99204.34;2042740;79;20181;-81
2021/06/16 05:04:39;;;;;;;9.31;3.33;;;;;;;16.42;85.67;99208.91;2040418;79;20275;-80
2021/06/16 05:07:42;;;;;;;4.97;3.33;;;;;;;16.67;85.05;99206.41;2042705;79;20590;-81
2021/06/16 05:10:45;;;;;;;8.26;3.21;;;;;;;16.89;84.64;99203.97;2044264;79;20575;-82
2021/06/16 05:13:47;;;;;;;8.29;3.31;;;;;;;17.16;83.97;99203.00;2043240;79;20162;-82
2021/06/16 05:16:53;;;;;;;10.06;3.44;;;;;;;17.44;83.10;99199.44;2037760;79;20266;-79
2021/06/16 05:19:57;;;;;;;16.90;4.22;;;;;;;17.70;82.51;99194.13;2035366;79;20253;-77
2021/06/16 05:23:01;;;;;;;9.51;4.36;;;;;;;18.01;81.91;99199.13;2034075;79;20722;-78
2021/06/16 05:26:04;;;;;;;7.66;4.35;;;;;;;18.25;81.40;99191.19;2034191;79;20814;-78
2021/06/16 05:29:08;;;;;;;12.55;5.53;;;;;;;18.56;80.58;99194.34;2034308;79;20201;-78
2021/06/16 05:32:11;;;;;;;13.41;5.31;;;;;;;18.96;79.16;99188.34;2035138;77;47618;-79
2021/06/16 05:35:14;;;;;;;7.47;4.82;;;;;;;19.46;77.41;99187.94;2036683;79;20207;-77
2021/06/16 05:38:17;;;;;;;8.86;5.04;;;;;;;19.97;75.57;99183.09;2033623;79;20777;-79
2021/06/16 05:41:20;;;;;;;10.20;5.94;;;;;;;20.42;73.81;99199.41;2035929;79;20576;-79
2021/06/16 05:44:22;;;;;;;6.44;4.90;;;;;;;21.03;71.50;99198.22;2036407;79;20676;-80
2021/06/16 05:47:25;;;;;;;6.31;4.38;;;;;;;21.59;68.87;99199.75;2036087;77;21294;-80
2021/06/16 05:50:28;;;;;;;9.36;4.39;;;;;;;22.10;66.63;99190.03;2037018;79;20171;-79
2021/06/16 05:53:31;;;;;;;5.36;3.94;;;;;;;22.59;64.50;99190.75;2038519;79;20197;-79
2021/06/16 05:56:33;;;;;;;3.88;3.45;;;;;;;23.01;62.32;99184.00;2036439;79;20265;-79
2021/06/16 05:59:36;;;;;;;6.39;3.86;;;;;;;23.37;61.10;99188.91;2035456;79;20170;-78
2021/06/16 06:02:38;;;;;;;5.46;3.35;;;;;;;23.64;59.43;99195.19;2033343;77;22828;-78
2021/06/16 06:05:41;;;;;;;6.39;3.70;;;;;;;23.95;58.32;99185.38;2034673;79;20173;-78
2021/06/16 06:08:43;;;;;;;3.71;3.31;;;;;;;24.26;56.99;99184.28;2035080;79;20218;-78
2021/06/16 06:11:46;;;;;;;6.18;3.53;;;;;;;24.61;55.81;99174.94;2037044;79;20172;-78
2021/06/16 06:14:49;;;;;;;7.05;3.74;;;;;;;24.95;54.51;99178.84;2036911;79;20162;-79
2021/06/16 06:17:51;;;;;;;7.82;3.13;;;;;;;25.29;53.90;99181.91;2041791;77;21799;-80
2021/06/16 06:20:54;;;;;;;10.54;3.22;;;;;;;25.60;53.01;99183.31;2040402;79;20190;-80
2021/06/16 06:24:01;;;;;;;7.79;2.95;;;;;;;25.87;51.82;99185.91;2039670;79;20235;-79
2021/06/16 06:27:05;;;;;;;5.22;2.84;;;;;;;26.30;50.53;99178.34;2042296;79;20195;-80
2021/06/16 06:30:09;;;;;;;5.64;3.13;;;;;;;26.58;49.68;99174.56;2041958;79;20230;-80
2021/06/16 06:33:12;;;;;;;11.50;3.13;;;;;;;26.88;48.70;99178.56;2035682;77;20162;-78
2021/06/16 06:36:15;;;;;;;6.54;2.97;;;;;;;27.06;47.97;99171.88;2034087;79;20170;-79
2021/06/16 06:39:19;;;;;;;9.11;3.29;;;;;;;27.18;47.41;99170.97;2033618;79;20250;-78
2021/06/16 06:42:21;;;;;;;8.29;2.79;;;;;;;27.27;46.99;99170.25;2033271;79;20352;-78
2021/06/16 06:45:24;;;;;;;6.81;2.84;;;;;;;27.39;46.46;99165.78;2032504;77;20615;-79
2021/06/16 06:48:26;;;;;;;9.73;3.04;;;;;;;27.41;46.64;99166.53;2033617;79;20173;-78
2021/06/16 06:51:29;;;;;;;9.10;2.81;;;;;;;27.38;46.28;99175.63;2032910;79;20223;-78
2021/06/16 06:54:35;;;;;;;5.66;2.45;;;;;;;27.54;47.20;99161.94;2034098;79;20246;-78
2021/06/16 06:57:38;;;;;;;6.51;2.70;;;;;;;27.76;46.71;99163.81;2033716;79;20173;-79
2021/06/16 07:00:40;;;;;;;5.71;2.83;;;;;;;27.95;46.28;99160.53;2036627;77;22774;-78
2021/06/16 07:03:43;;;;;;;4.28;2.17;;;;;;;28.25;45.87;99162.56;2033972;79;20637;-82
2021/06/16 07:06:45;;;;;;;10.15;2.46;;;;;;;28.53;44.95;99153.16;2033238;79;20238;-84
2021/06/16 07:09:48;;;;;;;5.79;2.74;;;;;;;28.78;44.06;99152.84;2034260;79;20215;-86
2021/06/16 07:12:51;;;;;;;7.59;2.92;;;;;;;28.90;43.62;99153.66;2034187;79;20262;-84
2021/06/16 07:15:54;;;;;;;2.67;2.20;;;;;;;29.05;44.45;99149.69;2028962;77;21095;-84
2021/06/16 07:18:57;;;;;;;6.68;2.17;;;;;;;29.23;43.44;99151.78;2033388;79;20539;-81
2021/06/16 07:22:00;;;;;;;4.95;2.67;;;;;;;29.16;43.36;99140.78;2033222;79;20192;-82
2021/06/16 07:25:04;;;;;;;3.46;2.14;;;;;;;29.02;43.19;99143.78;2033520;79;20463;-85
2021/06/16 07:28:07;;;;;;;9.38;2.42;;;;;;;28.97;43.18;99144.16;2033757;79;20165;-81
2021/06/16 07:31:09;;;;;;;6.70;2.34;;;;;;;29.05;43.36;99139.00;2032538;77;24138;-81
2021/06/16 07:34:12;;;;;;;7.51;2.51;;;;;;;29.12;43.30;99142.88;2034800;79;20267;-87
2021/06/16 07:37:15;;;;;;;3.55;2.10;;;;;;;29.14;42.09;99140.06;2039009;79;20628;-87
2021/06/16 07:40:18;;;;;;;2.95;2.10;;;;;;;29.25;42.52;99142.66;2038077;79;20181;-88
2021/06/16 07:43:23;;;;;;;2.89;2.17;;;;;;;29.23;42.50;99139.28;2037268;79;20213;-91
2021/06/16 07:46:26;;;;;;;4.49;2.22;;;;;;;29.35;44.44;99132.03;2034415;77;34624;-89
2021/06/16 07:49:29;;;;;;;3.90;2.21;;;;;;;29.30;42.22;99140.47;2035425;79;20186;-88
2021/06/16 07:52:32;;;;;;;5.03;2.04;;;;;;;29.07;43.37;99141.56;2036176;79;20162;-89
2021/06/16 07:55:36;;;;;;;6.09;2.16;;;;;;;28.96;42.87;99141.63;2037912;79;20735;-90
2021/06/16 07:58:39;;;;;;;5.25;2.51;;;;;;;28.81;42.10;99136.56;2034994;79;20659;-89
2021/06/16 08:01:43;;;;;;;3.69;2.11;;;;;;;28.83;42.27;99142.63;2033173;77;41732;-88
2021/06/16 08:04:46;;;;;;;6.18;2.40;;;;;;;28.89;43.00;99138.59;2034749;79;20202;-87
2021/06/16 08:07:48;;;;;;;5.74;2.40;;;;;;;28.98;41.98;99139.66;2035150;79;20181;-89
2021/06/16 08:10:51;;;;;;;4.65;2.38;;;;;;;29.02;42.04;99144.63;2034650;79;20166;-87
2021/06/16 08:13:54;;;;;;;2.46;2.06;;;;;;;29.26;42.09;99148.84;2034817;79;20181;-89
2021/06/16 08:16:56;;;;;;;6.43;2.15;;;;;;;29.32;41.64;99135.81;2034222;77;23643;-88
2021/06/16 08:19:59;;;;;;;4.21;2.35;;;;;;;29.44;41.24;99139.25;2030997;79;20737;-90
2021/06/16 08:23:03;;;;;;;6.57;2.19;;;;;;;29.51;40.53;99131.59;2035188;79;20231;-89
2021/06/16 08:26:06;;;;;;;7.50;2.45;;;;;;;29.70;40.40;99129.00;2035987;79;20273;-88
2021/06/16 08:29:08;;;;;;;6.16;1.80;;;;;;;30.02;40.70;99134.19;2033956;79;20241;-87
2021/06/16 08:32:11;;;;;;;10.55;2.80;;;;;;;30.24;41.01;99122.44;2032001;79;28791;-88
2021/06/16 08:35:14;;;;;;;8.91;2.33;;;;;;;30.42;38.92;99125.28;2032460;79;20813;-87
2021/06/16 08:38:17;;;;;;;6.10;2.04;;;;;;;30.21;38.45;99120.88;2032956;79;20203;-87
2021/06/16 08:41:21;;;;;;;8.70;2.13;;;;;;;30.34;39.33;99121.50;2032917;79;20162;-87
2021/06/16 08:44:25;;;;;;;8.51;1.69;;;;;;;30.67;39.56;99116.72;2032194;79;20271;-87
2021/06/16 08:47:28;;;;;;;7.86;1.94;;;;;;;30.94;38.37;99118.72;2032053;77;33103;-85
2021/06/16 08:50:31;;;;;;;4.05;2.00;;;;;;;31.19;38.30;99119.97;2032546;79;20303;-86
2021/06/16 08:53:35;;;;;;;5.43;2.13;;;;;;;31.34;37.92;99117.66;2033007;79;20289;-86
2021/06/16 08:56:38;;;;;;;8.39;1.84;;;;;;;31.45;36.97;99115.66;2032647;79;20675;-86
2021/06/16 08:59:40;;;;;;;4.05;2.03;;;;;;;31.44;37.50;99113.97;2031788;79;20833;-85
2021/06/16 09:02:44;;;;;;;4.49;1.89;;;;;;;31.60;36.68;99115.16;2031337;77;20250;-86
2021/06/16 09:05:50;;;;;;;3.75;1.80;;;;;;;31.72;37.00;99106.81;2032229;79;20582;-87
2021/06/16 09:09:05;;;;;;;12.94;2.30;;;;;;;31.65;37.09;99107.53;2031892;79;20956;-86
2021/06/16 09:12:10;;;;;;;10.31;2.00;;;;;;;31.73;36.85;99111.19;2032785;79;20162;-75
2021/06/16 09:15:15;;;;;;;8.45;2.10;;;;;;;31.98;36.30;99104.31;2032312;79;20231;-74
2021/06/16 09:18:18;;;;;;;6.31;2.04;;;;;;;32.18;36.20;99105.03;2032475;77;21798;-83
2021/06/16 09:21:31;;;;;;;6.76;1.83;;;;;;;31.85;35.28;99107.34;2032597;79;20265;-86
2021/06/16 09:25:02;;;;;;;2.72;1.69;;;;;;;31.90;36.88;99108.72;2032061;79;20314;-82
2021/06/16 09:28:06;;;;;;;3.99;1.86;;;;;;;32.05;35.20;99100.00;2032920;79;20229;-83
2021/06/16 09:31:12;;;;;;;7.89;1.98;;;;;;;32.12;35.26;99097.56;2031558;77;42117;-86
2021/06/16 09:34:17;;;;;;;4.41;1.83;;;;;;;31.64;35.90;99100.50;2032384;79;20276;-84
2021/06/16 09:37:19;;;;;;;6.74;1.81;;;;;;;31.37;35.82;99096.75;2032693;79;20166;-80
2021/06/16 09:40:36;;;;;;;3.85;1.40;;;;;;;31.73;37.79;99097.78;2032332;79;20177;-80
2021/06/16 09:43:40;;;;;;;3.76;1.60;;;;;;;31.92;32.93;99093.31;2033238;79;20731;-80
2021/06/16 09:47:14;;;;;;;9.55;1.63;;;;;;;32.08;33.68;99091.66;2030981;77;20631;-79
2021/06/16 09:50:24;;;;;;;4.20;1.56;;;;;;;31.99;34.41;99094.41;2031592;79;20673;-80
2021/06/16 09:53:27;;;;;;;3.25;1.73;;;;;;;32.10;33.44;99091.50;2033262;79;20967;-80
2021/06/16 09:56:32;;;;;;;4.79;1.83;;;;;;;32.21;34.45;99087.75;2033923;79;20658;-79
2021/06/16 09:59:37;;;;;;;9.80;1.83;;;;;;;32.51;33.96;99087.44;2033202;79;20177;-79
2021/06/16 10:02:41;;;;;;;4.61;1.80;;;;;;;32.72;33.35;99090.66;2031628;77;45016;-78
2021/06/16 10:06:03;;;;;;;3.70;1.24;;;;;;;32.70;34.01;99087.28;2032964;79;20382;-78
2021/06/16 10:09:08;;;;;;;3.35;1.45;;;;;;;32.44;32.28;99084.50;2032889;79;20209;-76
2021/06/16 10:12:11;;;;;;;3.34;1.20;;;;;;;32.23;32.58;99083.91;2036220;79;20216;-78
2021/06/16 10:15:19;;;;;;;6.78;1.60;;;;;;;32.12;32.16;99076.91;2032151;79;20205;-79
2021/06/16 10:18:23;;;;;;;3.34;1.29;;;;;;;32.02;32.49;99083.38;2032481;79;20245;-79
2021/06/16 10:21:26;;;;;;;6.78;1.40;;;;;;;32.35;33.09;99076.53;2032773;79;20326;-78
2021/06/16 10:24:29;;;;;;;6.97;1.25;;;;;;;32.76;30.91;99073.19;2029539;79;20189;-77
2021/06/16 10:27:39;;;;;;;2.55;1.23;;;;;;;32.98;30.37;99065.66;2032866;79;20207;-78
2021/06/16 10:30:44;;;;;;;2.70;0.96;;;;;;;32.89;30.20;99069.31;2031665;76;20717;-80
2021/06/16 10:33:56;;;;;;;2.95;0.98;;;;;;;33.07;30.91;99063.88;2031919;79;20186;-81
2021/06/16 10:37:03;;;;;;;3.39;0.98;;;;;;;33.58;29.48;99061.19;2028674;79;20166;-79
2021/06/16 10:40:18;;;;;;;4.93;1.06;;;;;;;33.83;29.40;99067.50;2029932;79;20665;-78
2021/06/16 10:43:28;;;;;;;2.17;1.08;;;;;;;34.02;28.57;99055.63;2030125;79;20255;-78
2021/06/16 10:47:06;;;;;;;1.41;1.11;;;;;;;34.07;27.60;99064.06;2030223;77;22617;-77
2021/06/16 10:50:09;;;;;;;;;;;;;;;33.82;27.57;99048.81;2021452;79;20194;-79
2021/06/16 10:53:16;;;;;;;5.09;1.04;;;;;;;34.04;27.65;99052.78;2030151;79;20097;-77
2021/06/16 10:56:42;;;;;;;3.56;1.10;;;;;;;33.96;27.63;99045.53;2029779;79;20178;-77
2021/06/16 10:59:49;;;;;;;4.71;1.00;;;;;;;33.82;27.33;99048.81;2029820;79;20653;-79
2021/06/16 11:02:53;;;;;;;2.05;0.80;;;;;;;33.62;25.79;99046.38;2028813;77;29018;-80
2021/06/16 11:05:55;;;;;;;7.13;1.02;;;;;;;33.65;27.01;99048.75;2031170;79;20165;-77
2021/06/16 11:09:19;;;;;;;3.86;0.90;;;;;;;34.15;29.01;99047.91;2032336;79;20187;-77
2021/06/16 11:12:29;;;;;;;1.67;0.93;;;;;;;34.44;25.90;99047.47;2033737;79;20242;-75
2021/06/16 11:15:37;;;;;;;1.44;0.90;;;;;;;34.57;26.15;99044.28;2031293;77;20396;-77
2021/06/16 11:18:40;;;;;;;1.33;0.82;;;;;;;34.73;26.17;99044.28;2034997;79;20295;-78
2021/06/16 11:21:43;;;;;;;3.40;0.80;;;;;;;34.87;25.07;99034.69;2032097;79;20150;-78
2021/06/16 11:25:04;;;;;;;2.88;0.69;;;;;;;34.81;25.09;99025.38;2035346;79;20211;-78
2021/06/16 11:28:21;;;;;;;4.22;0.80;;;;;;;34.71;26.34;99027.44;2032496;79;20190;-76
2021/06/16 11:31:23;;;;;;;2.99;0.90;;;;;;;34.56;25.68;99020.19;2031601;77;22632;-76
2021/06/16 11:34:52;;;;;;;1.75;0.91;;;;;;;34.78;25.61;99016.78;2032221;79;20916;-75
2021/06/16 11:37:59;;;;;;;2.88;1.10;;;;;;;34.72;25.48;99010.22;2032119;79;20173;-76
2021/06/16 11:41:12;;;;;;;0.93;0.70;;;;;;;34.63;23.91;99019.31;2032371;79;20621;-75
2021/06/16 11:44:14;;;;;;;1.08;0.60;;;;;;;34.30;24.41;99013.06;2032407;79;20247;-74
2021/06/16 11:47:19;;;;;;;1.04;0.70;;;;;;;33.83;24.30;99010.09;2031330;79;21000;-76
2021/06/16 11:50:32;;;;;;;2.95;0.70;;;;;;;33.80;25.18;98999.63;2032817;79;20377;-75
2021/06/16 11:53:37;;;;;;;1.67;0.60;;;;;;;33.97;25.15;99000.56;2031844;79;20603;-76
2021/06/16 11:56:40;;;;;;;2.55;0.57;;;;;;;34.34;26.08;99003.63;2031823;79;20257;-75
2021/06/16 11:59:49;;;;;;;0.71;0.55;;;;;;;34.31;24.17;99008.53;2031826;79;20258;-81
2021/06/16 12:02:51;;;;;;;1.39;0.81;;;;;;;34.04;24.55;99005.09;2028172;77;116097;-83
2021/06/16 12:06:05;;;;;;;1.51;0.79;;;;;;;34.35;25.87;98999.09;2031592;79;20185;-77
2021/06/16 12:09:08;;;;;;;2.89;0.70;;;;;;;34.48;25.23;98996.75;2035453;79;20214;-80
2021/06/16 12:12:11;;;;;;;1.65;0.80;;;;;;;34.71;25.47;98995.06;2031597;79;20182;-78
2021/06/16 12:15:16;;;;;;;2.72;0.90;;;;;;;34.68;25.07;98990.00;2031561;79;20287;-77
2021/06/16 12:18:19;;;;;;;2.05;0.60;;;;;;;34.41;25.10;98988.50;2031463;77;25192;-78
2021/06/16 12:21:21;;;;;;;1.27;0.68;;;;;;;34.35;25.03;98994.56;2032001;79;20246;-77
2021/06/16 12:24:29;;;;;;;3.35;0.70;;;;;;;34.44;24.63;98988.16;2032056;79;20269;-77
2021/06/16 12:27:32;;;;;;;0.97;0.56;;;;;;;34.70;25.11;98985.28;2032430;79;20979;-77
2021/06/16 12:30:36;;;;;;;1.95;0.70;;;;;;;34.82;24.53;98986.59;2031761;77;21573;-77
2021/06/16 12:33:44;;;;;;;1.09;0.70;;;;;;;34.73;23.68;98978.69;2032240;79;20194;-75
2021/06/16 12:37:21;;;;;;;1.20;0.60;;;;;;;34.57;24.40;98968.75;2030942;79;20213;-76
2021/06/16 12:40:39;;;;;;;3.23;0.72;;;;;;;34.75;24.67;98964.00;2032063;79;20550;-75
2021/06/16 12:43:42;;;;;;;0.90;0.60;;;;;;;35.13;23.80;98959.72;2031948;79;20838;-74
2021/06/16 12:46:49;;;;;;;0.94;0.50;;;;;;;35.22;23.19;98960.56;2031269;79;21138;-74
2021/06/16 12:49:56;;;;;;;1.70;0.50;;;;;;;34.62;22.06;98963.69;2031506;79;20207;-73
2021/06/16 12:53:11;;;;;;;0.73;0.50;;;;;;;34.40;23.77;98959.00;2031915;79;20247;-74
2021/06/16 12:56:33;;;;;;;1.21;0.70;;;;;;;34.30;24.14;98952.91;2032293;79;20178;-74
2021/06/16 12:59:48;;;;;;;1.30;0.70;;;;;;;34.08;23.74;98949.84;2032648;79;20197;-74
2021/06/16 13:02:52;;;;;;;1.80;0.60;;;;;;;33.92;23.35;98945.28;2030710;77;20377;-74
2021/06/16 13:06:00;;;;;;;4.16;0.60;;;;;;;33.72;23.43;98943.03;2032236;79;20165;-74
2021/06/16 13:09:03;;;;;;;4.09;0.60;;;;;;;34.16;25.61;98936.41;2032059;79;20226;-74
2021/06/16 13:12:06;;;;;;;1.31;0.61;;;;;;;34.47;25.17;98936.59;2032137;79;20227;-74
2021/06/16 13:15:09;;;;;;;4.94;0.74;;;;;;;34.53;24.54;98930.50;2031928;79;20421;-75
2021/06/16 13:18:16;;;;;;;2.85;0.55;;;;;;;34.78;24.00;98938.53;2032825;77;20510;-75
2021/06/16 13:21:19;;;;;;;2.17;0.63;;;;;;;34.90;23.84;98934.50;2032970;79;20273;-75
2021/06/16 13:24:21;;;;;;;1.26;0.59;;;;;;;35.00;23.94;98928.91;2032952;79;20158;-75
2021/06/16 13:27:24;;;;;;;1.10;0.60;;;;;;;35.07;23.23;98944.22;2033306;79;20265;-76
2021/06/16 13:30:40;;;;;;;1.05;0.54;;;;;;;35.16;22.87;98931.53;2032083;77;26618;-76
2021/06/16 13:33:43;;;;;;;1.38;0.50;;;;;;;35.34;22.49;98929.44;2033312;79;20194;-76
2021/06/16 13:36:46;;;;;;;0.79;0.40;;;;;;;35.36;22.33;98935.53;2033072;79;20282;-76
2021/06/16 13:39:48;;;;;;;0.69;0.40;;;;;;;35.50;20.82;98923.13;2032709;79;20185;-75
2021/06/16 13:42:54;;;;;;;0.89;0.40;;;;;;;35.45;20.82;98920.13;2032567;79;20741;-76
2021/06/16 13:45:56;;;;;;;1.42;0.50;;;;;;;35.28;21.77;98926.59;2032544;77;26044;-76
2021/06/16 13:48:59;;;;;;;0.76;0.45;;;;;;;35.06;22.31;98917.41;2032942;79;20215;-76
2021/06/16 13:52:02;;;;;;;0.85;0.30;;;;;;;34.95;21.15;98913.22;2032838;79;20161;-76
2021/06/16 13:55:06;;;;;;;1.17;0.50;;;;;;;35.11;21.72;98915.88;2033391;79;20203;-78
2021/06/16 13:58:09;;;;;;;0.40;0.40;;;;;;;35.17;22.07;98913.47;2033073;79;20174;-76
2021/06/16 14:01:12;;;;;;;2.36;0.52;;;;;;;35.17;22.18;98911.63;2031629;77;21666;-75
2021/06/16 14:04:14;;;;;;;2.06;0.50;;;;;;;34.80;21.52;98904.13;2033360;79;20294;-76
2021/06/16 14:07:17;;;;;;;1.90;0.40;;;;;;;34.69;20.96;98912.63;2033455;79;20286;-76
2021/06/16 14:10:20;;;;;;;1.35;0.44;;;;;;;34.62;21.83;98909.75;2032835;79;20185;-75
2021/06/16 14:13:22;;;;;;;0.91;0.44;;;;;;;34.63;21.74;98914.13;2033349;79;20219;-75
2021/06/16 14:16:25;;;;;;;0.91;0.50;;;;;;;34.73;21.73;98908.56;2032327;77;21744;-75
2021/06/16 14:19:28;;;;;;;0.60;0.40;;;;;;;34.23;20.61;98915.00;2033268;79;20162;-74
2021/06/16 14:22:30;;;;;;;1.52;0.44;;;;;;;34.31;23.21;98898.84;2032482;79;20330;-75
2021/06/16 14:25:33;;;;;;;1.50;0.61;;;;;;;34.57;22.05;98906.72;2032517;79;20190;-74
2021/06/16 14:28:36;;;;;;;0.79;0.50;;;;;;;34.42;23.29;98905.75;2033492;79;20618;-75
2021/06/16 14:31:38;;;;;;;2.40;0.60;;;;;;;34.62;24.36;98904.34;2032232;77;21504;-81
2021/06/16 14:34:41;;;;;;;0.63;0.50;;;;;;;34.88;23.47;98896.06;2032969;79;20583;-73